This is the latest recevied weather packets stored in our database for station/object DH1NAI-6. If no packets are shown the sender has not sent any weather packets the latest 10 day(s).
| Time | Temp. | Humidity | Pressure | Rain* | Wind** | Luminosity | Snow |
|---|---|---|---|---|---|---|---|
| 1777494915 | 0.56° C | 74% | 1024.5 hPa | 0 mm | - | 0 W/m² | - |
| 1777494307 | 1.11° C | 70% | 1024.5 hPa | 0 mm | - | 0 W/m² | - |
| 1777493699 | 1.67° C | 69% | 1024.5 hPa | 0 mm | - | 0 W/m² | - |
| 1777493091 | 2.22° C | 67% | 1024.2 hPa | 0 mm | - | 0 W/m² | - |
| 1777492482 | 2.78° C | 64% | 1024.2 hPa | 0 mm | - | 0 W/m² | - |
| 1777491875 | 3.89° C | 59% | 1024.3 hPa | 0 mm | - | 0 W/m² | - |
| 1777491267 | 4.44° C | 56% | 1024.3 hPa | 0 mm | - | 0 W/m² | - |
| 1777490659 | 4.44° C | 56% | 1024 hPa | 0 mm | - | 0 W/m² | - |
| 1777490051 | 5° C | 55% | 1024.3 hPa | 0 mm | - | 0 W/m² | - |
| 1777489443 | 5° C | 54% | 1024.1 hPa | 0 mm | - | 0 W/m² | - |
| 1777488835 | 5° C | 54% | 1023.9 hPa | 0 mm | - | 0 W/m² | - |
| 1777488227 | 5.56° C | 53% | 1023.8 hPa | 0 mm | - | 0 W/m² | - |
| 1777487619 | 5.56° C | 52% | 1023.7 hPa | 0 mm | - | 0 W/m² | - |
| 1777487011 | 6.11° C | 51% | 1023.6 hPa | 0 mm | - | 1 W/m² | - |
| 1777486403 | 6.11° C | 50% | 1023.2 hPa | 0 mm | - | 3 W/m² | - |
| 1777485795 | 6.67° C | 49% | 1023.3 hPa | 0 mm | - | 4 W/m² | - |
| 1777485187 | 7.22° C | 48% | 1023.1 hPa | 0 mm | - | 5 W/m² | - |
| 1777484579 | 7.22° C | 46% | 1023.2 hPa | 0 mm | - | 6 W/m² | - |
| 1777483971 | 7.78° C | 48% | 1023.2 hPa | 0 mm | - | 8 W/m² | - |
| 1777483363 | 7.78° C | 47% | 1022.9 hPa | 0 mm | - | 9 W/m² | - |
| 1777482755 | 8.33° C | 45% | 1022.9 hPa | 0 mm | - | 9 W/m² | - |
| 1777482147 | 8.33° C | 46% | 1023 hPa | 0 mm | - | 10 W/m² | - |
| 1777481539 | 8.89° C | 47% | 1022.8 hPa | 0 mm | - | 11 W/m² | - |
| 1777480931 | 9.44° C | 44% | 1022.8 hPa | 0 mm | - | 44 W/m² | - |
| 1777480323 | 9.44° C | 45% | 1022.7 hPa | 0 mm | - | 51 W/m² | - |
* Rain latest hour (hover to see other rain measurements)
** Current wind speed in m/s (hover to see current wind gust speed)